sensor_id;sensor_type;location;lat;lon;timestamp;pressure;altitude;pressure_sealevel;temperature;humidity
32298;BME280;18782;48.984;8.548;2023-03-04T00:00:30;100674.97;;;0.31;88.00
32298;BME280;18782;48.984;8.548;2023-03-04T00:02:58;100671.56;;;0.30;88.60
32298;BME280;18782;48.984;8.548;2023-03-04T00:05:26;100668.16;;;0.30;88.69
32298;BME280;18782;48.984;8.548;2023-03-04T00:07:53;100675.63;;;0.28;88.25
32298;BME280;18782;48.984;8.548;2023-03-04T00:10:23;100675.53;;;0.27;88.40
32298;BME280;18782;48.984;8.548;2023-03-04T00:12:50;100683.19;;;0.16;87.96
32298;BME280;18782;48.984;8.548;2023-03-04T00:15:18;100687.00;;;0.11;89.08
32298;BME280;18782;48.984;8.548;2023-03-04T00:17:46;100683.44;;;0.09;88.92
32298;BME280;18782;48.984;8.548;2023-03-04T00:20:13;100683.22;;;0.06;88.89
32298;BME280;18782;48.984;8.548;2023-03-04T00:22:41;100685.88;;;0.08;88.39
32298;BME280;18782;48.984;8.548;2023-03-04T00:25:08;100678.16;;;0.06;88.41
32298;BME280;18782;48.984;8.548;2023-03-04T00:27:37;100684.53;;;0.01;88.39
32298;BME280;18782;48.984;8.548;2023-03-04T00:30:06;100684.53;;;0.01;88.88
32298;BME280;18782;48.984;8.548;2023-03-04T00:32:34;100675.91;;;-0.01;89.39
32298;BME280;18782;48.984;8.548;2023-03-04T00:35:02;100678.44;;;-0.01;88.30
32298;BME280;18782;48.984;8.548;2023-03-04T00:37:30;100690.22;;;-0.02;88.14
32298;BME280;18782;48.984;8.548;2023-03-04T00:39:58;100681.38;;;-0.07;88.61
32298;BME280;18782;48.984;8.548;2023-03-04T00:42:25;100680.50;;;-0.07;88.37
32298;BME280;18782;48.984;8.548;2023-03-04T00:44:54;100682.81;;;-0.10;89.47
32298;BME280;18782;48.984;8.548;2023-03-04T00:47:22;100683.31;;;-0.14;88.93
32298;BME280;18782;48.984;8.548;2023-03-04T00:49:50;100688.38;;;-0.14;88.70
32298;BME280;18782;48.984;8.548;2023-03-04T00:52:17;100684.19;;;-0.14;88.91
32298;BME280;18782;48.984;8.548;2023-03-04T00:54:45;100682.28;;;-0.16;89.19
32298;BME280;18782;48.984;8.548;2023-03-04T00:57:13;100682.97;;;-0.19;88.85
32298;BME280;18782;48.984;8.548;2023-03-04T00:59:40;100692.19;;;-0.19;88.89
32298;BME280;18782;48.984;8.548;2023-03-04T01:02:10;100686.38;;;-0.18;89.02
32298;BME280;18782;48.984;8.548;2023-03-04T01:04:38;100689.41;;;-0.22;89.32
32298;BME280;18782;48.984;8.548;2023-03-04T01:07:07;100683.88;;;-0.29;88.90
32298;BME280;18782;48.984;8.548;2023-03-04T01:09:35;100683.63;;;-0.32;89.78
32298;BME280;18782;48.984;8.548;2023-03-04T01:12:02;100680.75;;;-0.36;89.89
32298;BME280;18782;48.984;8.548;2023-03-04T01:14:30;100682.91;;;-0.41;90.47
32298;BME280;18782;48.984;8.548;2023-03-04T01:16:58;100679.25;;;-0.44;90.91
32298;BME280;18782;48.984;8.548;2023-03-04T01:19:27;100688.38;;;-0.46;90.80
32298;BME280;18782;48.984;8.548;2023-03-04T01:21:55;100684.19;;;-0.46;89.89
32298;BME280;18782;48.984;8.548;2023-03-04T01:24:22;100682.44;;;-0.47;90.72
32298;BME280;18782;48.984;8.548;2023-03-04T01:26:50;100689.00;;;-0.49;91.09
32298;BME280;18782;48.984;8.548;2023-03-04T01:29:20;100685.22;;;-0.54;89.77
32298;BME280;18782;48.984;8.548;2023-03-04T01:31:48;100685.00;;;-0.57;90.58
32298;BME280;18782;48.984;8.548;2023-03-04T01:34:18;100684.72;;;-0.60;90.11
32298;BME280;18782;48.984;8.548;2023-03-04T01:36:47;100676.00;;;-0.64;90.20
32298;BME280;18782;48.984;8.548;2023-03-04T01:39:17;100675.88;;;-0.65;90.80
32298;BME280;18782;48.984;8.548;2023-03-04T01:41:44;100680.94;;;-0.65;91.14
32298;BME280;18782;48.984;8.548;2023-03-04T01:44:13;100676.28;;;-0.71;90.00
32298;BME280;18782;48.984;8.548;2023-03-04T01:46:43;100677.16;;;-0.70;90.46
32298;BME280;18782;48.984;8.548;2023-03-04T01:49:13;100670.09;;;-0.74;90.69
32298;BME280;18782;48.984;8.548;2023-03-04T01:51:43;100684.00;;;-0.80;91.61
32298;BME280;18782;48.984;8.548;2023-03-04T01:54:13;100672.00;;;-0.82;91.11
32298;BME280;18782;48.984;8.548;2023-03-04T01:56:44;100667.56;;;-0.85;91.03
32298;BME280;18782;48.984;8.548;2023-03-04T01:59:13;100670.63;;;-0.89;91.02
32298;BME280;18782;48.984;8.548;2023-03-04T02:01:43;100668.84;;;-0.90;91.67
32298;BME280;18782;48.984;8.548;2023-03-04T02:04:11;100669.22;;;-0.95;92.07
32298;BME280;18782;48.984;8.548;2023-03-04T02:06:40;100667.09;;;-1.01;91.10
32298;BME280;18782;48.984;8.548;2023-03-04T02:09:08;100660.16;;;-1.03;91.85
32298;BME280;18782;48.984;8.548;2023-03-04T02:11:38;100656.00;;;-1.03;92.29
32298;BME280;18782;48.984;8.548;2023-03-04T02:14:06;100657.25;;;-1.08;91.16
32298;BME280;18782;48.984;8.548;2023-03-04T02:16:34;100644.63;;;-1.08;91.71
32298;BME280;18782;48.984;8.548;2023-03-04T02:19:04;100657.88;;;-1.11;92.55
32298;BME280;18782;48.984;8.548;2023-03-04T02:21:33;100654.97;;;-1.15;92.78
32298;BME280;18782;48.984;8.548;2023-03-04T02:24:09;100652.97;;;-1.19;92.88
32298;BME280;18782;48.984;8.548;2023-03-04T02:26:42;100656.38;;;-1.19;93.25
32298;BME280;18782;48.984;8.548;2023-03-04T02:29:14;100647.03;;;-1.20;93.20
32298;BME280;18782;48.984;8.548;2023-03-04T02:31:44;100648.53;;;-1.22;92.25
32298;BME280;18782;48.984;8.548;2023-03-04T02:34:14;100650.94;;;-1.23;92.23
32298;BME280;18782;48.984;8.548;2023-03-04T02:36:43;100650.69;;;-1.26;93.07
32298;BME280;18782;48.984;8.548;2023-03-04T02:39:21;100653.22;;;-1.26;92.17
32298;BME280;18782;48.984;8.548;2023-03-04T02:41:54;100651.44;;;-1.27;93.15
32298;BME280;18782;48.984;8.548;2023-03-04T02:44:25;100655.50;;;-1.29;93.63
32298;BME280;18782;48.984;8.548;2023-03-04T02:46:54;100650.19;;;-1.33;92.73
32298;BME280;18782;48.984;8.548;2023-03-04T02:49:25;100654.09;;;-1.36;92.73
32298;BME280;18782;48.984;8.548;2023-03-04T02:51:58;100653.22;;;-1.37;92.16
32298;BME280;18782;48.984;8.548;2023-03-04T02:54:27;100651.94;;;-1.42;92.75
32298;BME280;18782;48.984;8.548;2023-03-04T02:56:59;100645.91;;;-1.44;92.78
32298;BME280;18782;48.984;8.548;2023-03-04T02:59:27;100654.25;;;-1.45;92.60
32298;BME280;18782;48.984;8.548;2023-03-04T03:01:55;100655.00;;;-1.46;92.93
32298;BME280;18782;48.984;8.548;2023-03-04T03:04:24;100655.63;;;-1.48;93.85
32298;BME280;18782;48.984;8.548;2023-03-04T03:06:53;100648.69;;;-1.51;92.86
32298;BME280;18782;48.984;8.548;2023-03-04T03:09:21;100646.88;;;-1.52;93.53
32298;BME280;18782;48.984;8.548;2023-03-04T03:11:48;100645.13;;;-1.53;94.25
32298;BME280;18782;48.984;8.548;2023-03-04T03:14:18;100648.41;;;-1.54;93.34
32298;BME280;18782;48.984;8.548;2023-03-04T03:16:45;100652.19;;;-1.59;93.61
32298;BME280;18782;48.984;8.548;2023-03-04T03:19:13;100656.75;;;-1.55;93.67
32298;BME280;18782;48.984;8.548;2023-03-04T03:21:41;100651.69;;;-1.55;93.35
32298;BME280;18782;48.984;8.548;2023-03-04T03:24:09;100648.16;;;-1.57;93.11
32298;BME280;18782;48.984;8.548;2023-03-04T03:26:38;100650.94;;;-1.64;93.37
32298;BME280;18782;48.984;8.548;2023-03-04T03:29:06;100638.31;;;-1.64;93.58
32298;BME280;18782;48.984;8.548;2023-03-04T03:31:35;100642.34;;;-1.66;92.44
32298;BME280;18782;48.984;8.548;2023-03-04T03:34:03;100643.22;;;-1.66;92.51
32298;BME280;18782;48.984;8.548;2023-03-04T03:36:31;100655.59;;;-1.69;93.71
32298;BME280;18782;48.984;8.548;2023-03-04T03:38:58;100647.13;;;-1.69;92.78
32298;BME280;18782;48.984;8.548;2023-03-04T03:41:26;100649.53;;;-1.71;93.07
32298;BME280;18782;48.984;8.548;2023-03-04T03:43:53;100642.72;;;-1.72;93.76
32298;BME280;18782;48.984;8.548;2023-03-04T03:46:22;100650.91;;;-1.74;93.29
32298;BME280;18782;48.984;8.548;2023-03-04T03:48:51;100651.03;;;-1.73;93.92
32298;BME280;18782;48.984;8.548;2023-03-04T03:51:18;100645.88;;;-1.74;94.06
32298;BME280;18782;48.984;8.548;2023-03-04T03:53:46;100641.31;;;-1.78;93.29
32298;BME280;18782;48.984;8.548;2023-03-04T03:56:14;100641.06;;;-1.81;93.64
32298;BME280;18782;48.984;8.548;2023-03-04T03:58:41;100636.03;;;-1.81;93.85
32298;BME280;18782;48.984;8.548;2023-03-04T04:01:09;100641.69;;;-1.84;93.22
32298;BME280;18782;48.984;8.548;2023-03-04T04:03:37;100635.50;;;-1.88;93.86
32298;BME280;18782;48.984;8.548;2023-03-04T04:06:06;100637.28;;;-1.87;93.78
32298;BME280;18782;48.984;8.548;2023-03-04T04:08:34;100636.75;;;-1.93;93.93
32298;BME280;18782;48.984;8.548;2023-03-04T04:11:01;100645.06;;;-1.94;94.15
32298;BME280;18782;48.984;8.548;2023-03-04T04:13:29;100639.13;;;-1.94;93.93
32298;BME280;18782;48.984;8.548;2023-03-04T04:15:57;100650.09;;;-1.94;94.42
32298;BME280;18782;48.984;8.548;2023-03-04T04:18:24;100650.75;;;-1.96;93.65
32298;BME280;18782;48.984;8.548;2023-03-04T04:20:52;100657.44;;;-1.97;93.47
32298;BME280;18782;48.984;8.548;2023-03-04T04:23:22;100656.66;;;-1.96;93.81
32298;BME280;18782;48.984;8.548;2023-03-04T04:25:49;100656.41;;;-1.99;94.14
32298;BME280;18782;48.984;8.548;2023-03-04T04:28:17;100653.75;;;-2.00;93.82
32298;BME280;18782;48.984;8.548;2023-03-04T04:30:45;100659.44;;;-2.03;94.31
32298;BME280;18782;48.984;8.548;2023-03-04T04:33:12;100658.41;;;-2.05;93.50
32298;BME280;18782;48.984;8.548;2023-03-04T04:35:40;100659.16;;;-2.06;93.38
32298;BME280;18782;48.984;8.548;2023-03-04T04:38:08;100663.22;;;-2.08;93.42
32298;BME280;18782;48.984;8.548;2023-03-04T04:40:37;100663.94;;;-2.09;93.62
32298;BME280;18782;48.984;8.548;2023-03-04T04:43:05;100657.75;;;-2.13;93.51
32298;BME280;18782;48.984;8.548;2023-03-04T04:45:33;100658.38;;;-2.15;93.17
32298;BME280;18782;48.984;8.548;2023-03-04T04:48:01;100659.88;;;-2.17;94.24
32298;BME280;18782;48.984;8.548;2023-03-04T04:50:28;100668.97;;;-2.19;93.42
32298;BME280;18782;48.984;8.548;2023-03-04T04:52:58;100659.63;;;-2.20;93.87
32298;BME280;18782;48.984;8.548;2023-03-04T04:55:26;100659.63;;;-2.20;94.17
32298;BME280;18782;48.984;8.548;2023-03-04T04:57:55;100656.22;;;-2.21;94.02
32298;BME280;18782;48.984;8.548;2023-03-04T05:00:22;100663.66;;;-2.22;93.81
32298;BME280;18782;48.984;8.548;2023-03-04T05:02:50;100663.38;;;-2.25;93.96
32298;BME280;18782;48.984;8.548;2023-03-04T05:05:18;100665.66;;;-2.28;93.48
32298;BME280;18782;48.984;8.548;2023-03-04T05:07:45;100666.25;;;-2.31;94.29
32298;BME280;18782;48.984;8.548;2023-03-04T05:10:13;100660.09;;;-2.34;93.60
32298;BME280;18782;48.984;8.548;2023-03-04T05:12:42;100664.84;;;-2.38;93.59
32298;BME280;18782;48.984;8.548;2023-03-04T05:15:12;100666.38;;;-2.40;93.71
32298;BME280;18782;48.984;8.548;2023-03-04T05:17:39;100666.09;;;-2.43;93.83
32298;BME280;18782;48.984;8.548;2023-03-04T05:20:08;100663.44;;;-2.44;93.65
32298;BME280;18782;48.984;8.548;2023-03-04T05:22:36;100668.31;;;-2.46;94.41
32298;BME280;18782;48.984;8.548;2023-03-04T05:25:04;100668.19;;;-2.47;93.77
32298;BME280;18782;48.984;8.548;2023-03-04T05:27:32;100670.59;;;-2.49;93.80
32298;BME280;18782;48.984;8.548;2023-03-04T05:30:00;100661.88;;;-2.52;93.81
32298;BME280;18782;48.984;8.548;2023-03-04T05:32:29;100673.13;;;-2.49;93.43
32298;BME280;18782;48.984;8.548;2023-03-04T05:34:56;100664.16;;;-2.55;93.73
32298;BME280;18782;48.984;8.548;2023-03-04T05:37:24;100673.31;;;-2.56;94.66
32298;BME280;18782;48.984;8.548;2023-03-04T05:39:52;100666.38;;;-2.58;94.04
32298;BME280;18782;48.984;8.548;2023-03-04T05:42:19;100674.81;;;-2.58;93.92
32298;BME280;18782;48.984;8.548;2023-03-04T05:44:47;100676.34;;;-2.60;93.95
32298;BME280;18782;48.984;8.548;2023-03-04T05:47:14;100673.66;;;-2.62;93.90
32298;BME280;18782;48.984;8.548;2023-03-04T05:49:43;100677.81;;;-2.62;93.80
32298;BME280;18782;48.984;8.548;2023-03-04T05:52:11;100689.41;;;-2.64;94.24
32298;BME280;18782;48.984;8.548;2023-03-04T05:54:39;100683.63;;;-2.63;94.05
32298;BME280;18782;48.984;8.548;2023-03-04T05:57:06;100688.78;;;-2.62;94.21
32298;BME280;18782;48.984;8.548;2023-03-04T05:59:34;100684.09;;;-2.67;93.78
32298;BME280;18782;48.984;8.548;2023-03-04T06:02:02;100687.66;;;-2.65;93.30
32298;BME280;18782;48.984;8.548;2023-03-04T06:04:30;100689.75;;;-2.70;93.30
32298;BME280;18782;48.984;8.548;2023-03-04T06:06:59;100691.25;;;-2.72;93.75
32298;BME280;18782;48.984;8.548;2023-03-04T06:09:26;100698.69;;;-2.73;93.53
32298;BME280;18782;48.984;8.548;2023-03-04T06:11:54;100695.69;;;-2.69;93.66
32298;BME280;18782;48.984;8.548;2023-03-04T06:14:22;100700.59;;;-2.71;93.77
32298;BME280;18782;48.984;8.548;2023-03-04T06:16:49;100697.91;;;-2.72;93.64
32298;BME280;18782;48.984;8.548;2023-03-04T06:19:17;100702.25;;;-2.71;94.04
32298;BME280;18782;48.984;8.548;2023-03-04T06:21:45;100703.13;;;-2.71;93.56
32298;BME280;18782;48.984;8.548;2023-03-04T06:24:14;100705.75;;;-2.69;93.87
32298;BME280;18782;48.984;8.548;2023-03-04T06:26:42;100706.66;;;-2.69;93.47
32298;BME280;18782;48.984;8.548;2023-03-04T06:29:10;100712.56;;;-2.68;92.94
32298;BME280;18782;48.984;8.548;2023-03-04T06:31:38;100709.56;;;-2.64;93.86
32298;BME280;18782;48.984;8.548;2023-03-04T06:34:07;100712.22;;;-2.44;96.87
32298;BME280;18782;48.984;8.548;2023-03-04T06:36:35;100712.44;;;-2.22;98.66
32298;BME280;18782;48.984;8.548;2023-03-04T06:39:03;100722.75;;;-2.00;98.05
32298;BME280;18782;48.984;8.548;2023-03-04T06:41:32;100723.72;;;-1.79;96.02
32298;BME280;18782;48.984;8.548;2023-03-04T06:44:00;100717.28;;;-1.75;92.79
32298;BME280;18782;48.984;8.548;2023-03-04T06:46:28;100719.06;;;-1.74;91.54
32298;BME280;18782;48.984;8.548;2023-03-04T06:48:56;100724.38;;;-1.71;90.41
32298;BME280;18782;48.984;8.548;2023-03-04T06:51:23;100717.31;;;-1.65;90.56
32298;BME280;18782;48.984;8.548;2023-03-04T06:53:51;100718.59;;;-1.60;90.06
32298;BME280;18782;48.984;8.548;2023-03-04T06:56:19;100723.28;;;-1.54;88.96
32298;BME280;18782;48.984;8.548;2023-03-04T06:58:48;100722.03;;;-1.49;89.70
32298;BME280;18782;48.984;8.548;2023-03-04T07:01:17;100735.56;;;-1.39;89.50
32298;BME280;18782;48.984;8.548;2023-03-04T07:03:46;100727.72;;;-1.32;89.35
32298;BME280;18782;48.984;8.548;2023-03-04T07:06:15;100716.63;;;-1.23;89.87
32298;BME280;18782;48.984;8.548;2023-03-04T07:08:44;100732.28;;;-1.17;89.44
32298;BME280;18782;48.984;8.548;2023-03-04T07:11:12;100733.94;;;-1.08;88.83
32298;BME280;18782;48.984;8.548;2023-03-04T07:13:40;100732.19;;;-0.98;87.99
32298;BME280;18782;48.984;8.548;2023-03-04T07:16:11;100728.63;;;-0.90;87.96
32298;BME280;18782;48.984;8.548;2023-03-04T07:18:39;100743.91;;;-0.79;88.05
32298;BME280;18782;48.984;8.548;2023-03-04T07:21:07;100738.13;;;-0.77;88.42
32298;BME280;18782;48.984;8.548;2023-03-04T07:23:35;100741.53;;;-0.77;88.49
32298;BME280;18782;48.984;8.548;2023-03-04T07:26:04;100739.59;;;-0.69;87.96
32298;BME280;18782;48.984;8.548;2023-03-04T07:28:32;100743.38;;;-0.64;88.11
32298;BME280;18782;48.984;8.548;2023-03-04T07:31:09;100746.63;;;-0.35;89.58
32298;BME280;18782;48.984;8.548;2023-03-04T07:33:37;100752.94;;;-0.30;87.33
32298;BME280;18782;48.984;8.548;2023-03-04T07:36:05;100751.91;;;-0.21;87.87
32298;BME280;18782;48.984;8.548;2023-03-04T07:38:32;100756.06;;;-0.22;87.11
32298;BME280;18782;48.984;8.548;2023-03-04T07:41:00;100757.97;;;-0.09;86.84
32298;BME280;18782;48.984;8.548;2023-03-04T07:43:28;100756.50;;;0.05;86.44
32298;BME280;18782;48.984;8.548;2023-03-04T07:45:58;100763.81;;;0.12;86.77
32298;BME280;18782;48.984;8.548;2023-03-04T07:48:28;100763.50;;;0.29;88.43
32298;BME280;18782;48.984;8.548;2023-03-04T07:51:04;100767.53;;;0.37;86.81
32298;BME280;18782;48.984;8.548;2023-03-04T07:53:32;100764.56;;;0.43;85.74
32298;BME280;18782;48.984;8.548;2023-03-04T07:56:00;100777.47;;;0.46;85.32
32298;BME280;18782;48.984;8.548;2023-03-04T07:58:28;100769.22;;;0.48;84.78
32298;BME280;18782;48.984;8.548;2023-03-04T08:00:56;100777.47;;;0.46;84.69
32298;BME280;18782;48.984;8.548;2023-03-04T08:03:23;100786.38;;;0.31;84.29
32298;BME280;18782;48.984;8.548;2023-03-04T08:05:52;100781.84;;;0.37;85.55
32298;BME280;18782;48.984;8.548;2023-03-04T08:08:20;100776.78;;;0.37;85.75
32298;BME280;18782;48.984;8.548;2023-03-04T08:10:48;100781.66;;;0.45;84.85
32298;BME280;18782;48.984;8.548;2023-03-04T08:13:15;100786.44;;;0.52;85.23
32298;BME280;18782;48.984;8.548;2023-03-04T08:15:43;100783.84;;;0.63;85.76
32298;BME280;18782;48.984;8.548;2023-03-04T08:18:10;100785.47;;;0.62;85.03
32298;BME280;18782;48.984;8.548;2023-03-04T08:20:40;100784.84;;;0.65;85.58
32298;BME280;18782;48.984;8.548;2023-03-04T08:23:09;100782.88;;;0.72;84.92
32298;BME280;18782;48.984;8.548;2023-03-04T08:25:38;100785.56;;;0.74;84.88
32298;BME280;18782;48.984;8.548;2023-03-04T08:28:06;100775.00;;;0.80;84.72
32298;BME280;18782;48.984;8.548;2023-03-04T08:30:35;100779.66;;;0.85;84.70
32298;BME280;18782;48.984;8.548;2023-03-04T08:33:02;100777.47;;;0.90;84.34
32298;BME280;18782;48.984;8.548;2023-03-04T08:35:32;100782.31;;;0.98;84.79
32298;BME280;18782;48.984;8.548;2023-03-04T08:38:00;100775.31;;;1.06;84.75
32298;BME280;18782;48.984;8.548;2023-03-04T08:40:29;100773.22;;;1.00;84.60
32298;BME280;18782;48.984;8.548;2023-03-04T08:42:56;100780.38;;;1.06;85.27
32298;BME280;18782;48.984;8.548;2023-03-04T08:45:24;100775.53;;;1.09;84.97
32298;BME280;18782;48.984;8.548;2023-03-04T08:47:52;100773.84;;;1.32;85.01
32298;BME280;18782;48.984;8.548;2023-03-04T08:50:19;100783.56;;;1.49;84.66
32298;BME280;18782;48.984;8.548;2023-03-04T08:52:48;100770.13;;;1.62;84.47
32298;BME280;18782;48.984;8.548;2023-03-04T08:55:15;100769.13;;;1.71;84.63
32298;BME280;18782;48.984;8.548;2023-03-04T08:57:44;100772.56;;;1.95;84.16
32298;BME280;18782;48.984;8.548;2023-03-04T09:00:13;100776.22;;;2.11;83.27
32298;BME280;18782;48.984;8.548;2023-03-04T09:02:40;100773.00;;;2.13;82.94
32298;BME280;18782;48.984;8.548;2023-03-04T09:05:08;100774.19;;;2.18;82.49
32298;BME280;18782;48.984;8.548;2023-03-04T09:07:36;100778.66;;;2.09;83.45
32298;BME280;18782;48.984;8.548;2023-03-04T09:10:04;100776.47;;;2.39;83.07
32298;BME280;18782;48.984;8.548;2023-03-04T09:12:32;100778.25;;;2.40;82.82
32298;BME280;18782;48.984;8.548;2023-03-04T09:15:01;100775.81;;;2.53;81.84
32298;BME280;18782;48.984;8.548;2023-03-04T09:17:37;100764.16;;;2.68;82.51
32298;BME280;18782;48.984;8.548;2023-03-04T09:20:06;100762.44;;;2.80;81.57
32298;BME280;18782;48.984;8.548;2023-03-04T09:22:35;100764.16;;;2.93;81.20
32298;BME280;18782;48.984;8.548;2023-03-04T09:25:04;100768.88;;;3.25;81.00
32298;BME280;18782;48.984;8.548;2023-03-04T09:27:37;100774.03;;;3.27;80.11
32298;BME280;18782;48.984;8.548;2023-03-04T09:30:08;100773.97;;;3.38;79.89
32298;BME280;18782;48.984;8.548;2023-03-04T09:32:35;100764.94;;;3.55;80.69
32298;BME280;18782;48.984;8.548;2023-03-04T09:35:04;100773.75;;;3.74;78.80
32298;BME280;18782;48.984;8.548;2023-03-04T09:37:32;100771.03;;;3.97;78.65
32298;BME280;18782;48.984;8.548;2023-03-04T09:40:00;100771.56;;;4.06;79.25
32298;BME280;18782;48.984;8.548;2023-03-04T09:42:34;100764.03;;;4.21;78.17
32298;BME280;18782;48.984;8.548;2023-03-04T09:45:04;100775.75;;;4.32;77.42
32298;BME280;18782;48.984;8.548;2023-03-04T09:47:36;100774.38;;;4.37;76.30
32298;BME280;18782;48.984;8.548;2023-03-04T09:50:07;100769.34;;;4.52;75.81
32298;BME280;18782;48.984;8.548;2023-03-04T09:52:46;100773.81;;;4.69;75.24
32298;BME280;18782;48.984;8.548;2023-03-04T09:55:20;100778.59;;;4.78;74.54
32298;BME280;18782;48.984;8.548;2023-03-04T09:57:52;100773.00;;;4.84;74.22
32298;BME280;18782;48.984;8.548;2023-03-04T10:00:25;100774.00;;;5.01;74.10
32298;BME280;18782;48.984;8.548;2023-03-04T10:03:10;100776.06;;;5.21;71.40
32298;BME280;18782;48.984;8.548;2023-03-04T10:05:42;100774.66;;;5.26;71.31
32298;BME280;18782;48.984;8.548;2023-03-04T10:08:30;100774.16;;;5.46;69.22
32298;BME280;18782;48.984;8.548;2023-03-04T10:11:01;100772.22;;;5.57;69.96
32298;BME280;18782;48.984;8.548;2023-03-04T10:13:34;100776.97;;;5.66;68.15
32298;BME280;18782;48.984;8.548;2023-03-04T10:16:05;100782.78;;;5.78;65.95
32298;BME280;18782;48.984;8.548;2023-03-04T10:18:39;100776.34;;;5.99;66.65
32298;BME280;18782;48.984;8.548;2023-03-04T10:21:15;100775.38;;;6.12;65.16
32298;BME280;18782;48.984;8.548;2023-03-04T10:23:47;100768.13;;;6.05;63.58
32298;BME280;18782;48.984;8.548;2023-03-04T10:26:18;100770.97;;;5.95;62.90
32298;BME280;18782;48.984;8.548;2023-03-04T10:28:47;100771.69;;;5.63;62.43
32298;BME280;18782;48.984;8.548;2023-03-04T10:31:19;100770.09;;;5.35;63.14
32298;BME280;18782;48.984;8.548;2023-03-04T10:33:49;100767.44;;;5.19;64.29
32298;BME280;18782;48.984;8.548;2023-03-04T10:36:33;100770.75;;;5.03;65.06
32298;BME280;18782;48.984;8.548;2023-03-04T10:39:07;100768.84;;;5.14;66.77
32298;BME280;18782;48.984;8.548;2023-03-04T10:41:40;100762.69;;;5.25;66.86
32298;BME280;18782;48.984;8.548;2023-03-04T10:44:14;100769.13;;;5.33;64.68
32298;BME280;18782;48.984;8.548;2023-03-04T10:46:44;100764.69;;;5.16;65.40
32298;BME280;18782;48.984;8.548;2023-03-04T10:49:14;100764.94;;;5.06;65.91
32298;BME280;18782;48.984;8.548;2023-03-04T10:51:44;100761.78;;;5.10;66.49
32298;BME280;18782;48.984;8.548;2023-03-04T10:54:22;100757.03;;;5.16;64.12
32298;BME280;18782;48.984;8.548;2023-03-04T10:56:58;100756.69;;;5.10;65.16
32298;BME280;18782;48.984;8.548;2023-03-04T10:59:32;100754.94;;;5.09;64.83
32298;BME280;18782;48.984;8.548;2023-03-04T11:02:12;100751.31;;;5.05;65.33
32298;BME280;18782;48.984;8.548;2023-03-04T11:04:48;100747.72;;;5.02;65.41
32298;BME280;18782;48.984;8.548;2023-03-04T11:07:16;100742.88;;;4.78;66.76
32298;BME280;18782;48.984;8.548;2023-03-04T11:09:44;100743.97;;;4.82;65.13
32298;BME280;18782;48.984;8.548;2023-03-04T11:12:14;100737.19;;;4.82;66.97
32298;BME280;18782;48.984;8.548;2023-03-04T11:14:45;100740.53;;;4.81;66.63
32298;BME280;18782;48.984;8.548;2023-03-04T11:17:21;100743.34;;;4.58;66.53
32298;BME280;18782;48.984;8.548;2023-03-04T11:19:55;100736.50;;;4.57;66.01
32298;BME280;18782;48.984;8.548;2023-03-04T11:22:25;100743.34;;;4.58;66.98
32298;BME280;18782;48.984;8.548;2023-03-04T11:24:58;100736.69;;;4.60;66.92
32298;BME280;18782;48.984;8.548;2023-03-04T11:27:35;100736.69;;;4.60;67.07
32298;BME280;18782;48.984;8.548;2023-03-04T11:30:18;100732.00;;;4.53;66.22
32298;BME280;18782;48.984;8.548;2023-03-04T11:32:48;100731.97;;;4.66;66.16
32298;BME280;18782;48.984;8.548;2023-03-04T11:35:23;100728.31;;;4.76;66.44
32298;BME280;18782;48.984;8.548;2023-03-04T11:37:58;100736.19;;;4.80;68.59
32298;BME280;18782;48.984;8.548;2023-03-04T11:40:33;100722.53;;;4.93;66.80
32298;BME280;18782;48.984;8.548;2023-03-04T11:43:06;100732.41;;;5.02;66.26
32298;BME280;18782;48.984;8.548;2023-03-04T11:48:41;100720.78;;;5.07;66.22
32298;BME280;18782;48.984;8.548;2023-03-04T11:51:19;100721.84;;;5.10;65.84
32298;BME280;18782;48.984;8.548;2023-03-04T11:53:59;100721.41;;;5.03;65.01
32298;BME280;18782;48.984;8.548;2023-03-04T11:56:31;100719.19;;;5.09;65.57
32298;BME280;18782;48.984;8.548;2023-03-04T11:59:21;100715.84;;;5.10;65.93
32298;BME280;18782;48.984;8.548;2023-03-04T12:02:09;100706.53;;;5.25;66.84
32298;BME280;18782;48.984;8.548;2023-03-04T12:05:02;100702.31;;;5.26;65.88
32298;BME280;18782;48.984;8.548;2023-03-04T12:07:45;100711.22;;;5.17;64.39
32298;BME280;18782;48.984;8.548;2023-03-04T12:10:24;100706.88;;;5.16;64.90
32298;BME280;18782;48.984;8.548;2023-03-04T12:13:15;100696.22;;;4.94;65.22
32298;BME280;18782;48.984;8.548;2023-03-04T12:15:54;100699.56;;;4.93;64.44
32298;BME280;18782;48.984;8.548;2023-03-04T12:18:34;100691.81;;;4.91;65.04
32298;BME280;18782;48.984;8.548;2023-03-04T12:21:16;100691.81;;;5.06;65.31
32298;BME280;18782;48.984;8.548;2023-03-04T12:26:54;100680.94;;;5.23;64.18
32298;BME280;18782;48.984;8.548;2023-03-04T12:29:36;100674.50;;;5.30;64.93
32298;BME280;18782;48.984;8.548;2023-03-04T12:32:11;100675.63;;;5.35;64.62
32298;BME280;18782;48.984;8.548;2023-03-04T12:34:53;100664.81;;;5.39;64.35
32298;BME280;18782;48.984;8.548;2023-03-04T12:37:37;100673.75;;;5.47;64.65
32298;BME280;18782;48.984;8.548;2023-03-04T12:40:37;100670.09;;;5.28;63.65
32298;BME280;18782;48.984;8.548;2023-03-04T12:43:27;100665.69;;;5.25;64.58
32298;BME280;18782;48.984;8.548;2023-03-04T12:46:03;100654.75;;;5.42;65.37
32298;BME280;18782;48.984;8.548;2023-03-04T12:48:36;100654.41;;;5.36;64.56
32298;BME280;18782;48.984;8.548;2023-03-04T12:51:15;100652.66;;;5.35;64.57
32298;BME280;18782;48.984;8.548;2023-03-04T12:53:55;100663.41;;;5.30;63.16
32298;BME280;18782;48.984;8.548;2023-03-04T12:56:32;100659.63;;;5.23;63.94
32298;BME280;18782;48.984;8.548;2023-03-04T12:59:03;100640.16;;;5.25;64.90
32298;BME280;18782;48.984;8.548;2023-03-04T13:01:35;100645.00;;;5.35;65.35
32298;BME280;18782;48.984;8.548;2023-03-04T13:04:11;100641.03;;;5.40;64.37
32298;BME280;18782;48.984;8.548;2023-03-04T13:06:44;100640.06;;;5.38;64.52
32298;BME280;18782;48.984;8.548;2023-03-04T13:09:20;100638.66;;;5.43;63.76
32298;BME280;18782;48.984;8.548;2023-03-04T13:11:54;100636.25;;;5.46;63.31
32298;BME280;18782;48.984;8.548;2023-03-04T13:14:33;100633.09;;;5.50;64.09
32298;BME280;18782;48.984;8.548;2023-03-04T13:19:51;100634.84;;;5.52;63.55